createdAt,value
2022-08-17T00:00:42.830Z,15.70
2022-08-17T00:05:45.688Z,15.60
2022-08-17T00:10:48.732Z,15.50
2022-08-17T00:15:54.656Z,15.30
2022-08-17T00:20:57.665Z,15.20
2022-08-17T00:25:59.496Z,15.30
2022-08-17T00:31:03.063Z,15.20
2022-08-17T00:36:05.317Z,15.30
2022-08-17T00:41:09.480Z,15.30
2022-08-17T00:46:17.557Z,15.30
2022-08-17T00:51:25.833Z,15.40
2022-08-17T00:56:32.085Z,15.40
2022-08-17T01:01:36.108Z,15.40
2022-08-17T01:06:38.550Z,15.20
2022-08-17T01:11:40.706Z,15.20
2022-08-17T01:16:44.039Z,15.20
2022-08-17T01:21:53.082Z,15.20
2022-08-17T01:26:57.619Z,15.10
2022-08-17T01:32:03.992Z,15.20
2022-08-17T01:37:05.813Z,15.30
2022-08-17T01:42:15.454Z,15.40
2022-08-17T01:47:17.269Z,15.70
2022-08-17T01:52:20.165Z,16.00
2022-08-17T01:57:23.377Z,16.00
2022-08-17T02:02:31.183Z,15.90
2022-08-17T02:07:59.892Z,15.90
2022-08-17T02:12:56.798Z,16.00
2022-08-17T02:17:58.848Z,15.90
2022-08-17T02:23:02.007Z,15.80
2022-08-17T02:28:06.140Z,15.80
2022-08-17T02:33:11.417Z,15.80
2022-08-17T02:38:13.891Z,15.80
2022-08-17T02:43:17.100Z,15.80
2022-08-17T02:48:31.139Z,15.80
2022-08-17T02:53:35.535Z,15.80
2022-08-17T02:58:39.301Z,15.80
2022-08-17T03:03:41.338Z,15.70
2022-08-17T03:08:43.173Z,15.70
2022-08-17T03:13:46.441Z,15.70
2022-08-17T03:18:48.256Z,15.70
2022-08-17T03:23:54.463Z,15.90
2022-08-17T03:28:57.993Z,15.90
2022-08-17T03:33:59.907Z,15.90
2022-08-17T03:39:01.940Z,15.80
2022-08-17T03:44:05.525Z,15.90
2022-08-17T03:49:08.530Z,16.00
2022-08-17T03:54:11.657Z,16.10
2022-08-17T03:59:21.041Z,16.30
2022-08-17T04:04:27.750Z,16.30
2022-08-17T04:09:29.982Z,16.30
2022-08-17T04:14:33.757Z,16.30
2022-08-17T04:19:35.644Z,16.30
2022-08-17T04:24:37.513Z,16.30
2022-08-17T04:29:49.983Z,16.30
2022-08-17T04:34:57.554Z,16.40
2022-08-17T04:40:04.209Z,16.30
2022-08-17T04:45:08.686Z,16.40
2022-08-17T04:50:10.495Z,16.50
2022-08-17T04:55:15.077Z,16.60
2022-08-17T05:00:18.644Z,16.80
2022-08-17T05:05:34.660Z,16.90
2022-08-17T05:10:38.144Z,16.90
2022-08-17T05:15:57.663Z,17.20
2022-08-17T05:20:59.657Z,17.40
2022-08-17T05:26:01.475Z,17.60
2022-08-17T05:31:05.836Z,17.80
2022-08-17T05:36:10.289Z,18.20
2022-08-17T05:41:32.099Z,18.70
2022-08-17T05:46:39.125Z,18.80
2022-08-17T05:52:03.276Z,18.90
2022-08-17T05:57:34.740Z,19.10
2022-08-17T06:02:47.738Z,19.40
2022-08-17T06:07:57.762Z,19.60
2022-08-17T06:13:09.423Z,19.80
2022-08-17T06:18:19.238Z,20.00
2022-08-17T06:23:26.488Z,20.10
2022-08-17T06:28:35.261Z,20.20
2022-08-17T06:33:39.863Z,20.10
2022-08-17T06:38:51.785Z,20.20
2022-08-17T06:44:47.551Z,20.30
2022-08-17T06:49:43.861Z,20.30
2022-08-17T06:55:00.069Z,20.20
2022-08-17T07:00:05.126Z,20.10
2022-08-17T07:05:08.619Z,20.00
2022-08-17T07:10:11.605Z,20.10
2022-08-17T07:15:16.254Z,20.10
2022-08-17T07:20:21.868Z,20.40
2022-08-17T07:25:24.540Z,20.60
2022-08-17T07:30:28.601Z,20.70
2022-08-17T07:35:40.656Z,20.80
2022-08-17T07:40:47.762Z,20.80
2022-08-17T07:46:06.432Z,20.70
2022-08-17T07:51:21.853Z,20.80
2022-08-17T07:56:39.798Z,20.80
2022-08-17T08:01:45.692Z,21.00
2022-08-17T08:06:52.598Z,21.00
2022-08-17T08:11:54.536Z,20.80
2022-08-17T08:16:59.200Z,20.70
2022-08-17T08:22:08.111Z,20.60
2022-08-17T08:27:22.937Z,20.40
2022-08-17T08:32:39.713Z,20.30
2022-08-17T08:37:52.208Z,20.20
2022-08-17T08:43:02.640Z,20.00
2022-08-17T08:50:37.060Z,20.00
2022-08-17T08:54:27.034Z,20.10
2022-08-17T08:59:36.478Z,20.10
2022-08-17T09:05:13.865Z,20.10
2022-08-17T09:10:25.332Z,20.00
2022-08-17T09:15:30.833Z,20.00
2022-08-17T09:20:50.610Z,20.10
2022-08-17T09:25:59.815Z,20.20
2022-08-17T09:31:07.680Z,20.30
2022-08-17T09:36:13.421Z,20.40
2022-08-17T09:41:23.844Z,20.70
2022-08-17T09:46:30.481Z,21.00
2022-08-17T09:51:35.897Z,21.20
2022-08-17T09:57:18.121Z,21.40
2022-08-17T10:02:42.099Z,21.70
2022-08-17T10:07:50.498Z,22.10
2022-08-17T10:13:03.228Z,22.20
2022-08-17T10:18:31.978Z,22.30
2022-08-17T10:23:35.272Z,22.60
2022-08-17T10:28:44.009Z,22.80
2022-08-17T10:34:00.617Z,23.00
2022-08-17T10:39:10.958Z,23.10
2022-08-17T10:44:39.217Z,23.70
2022-08-17T10:50:34.067Z,23.70
2022-08-17T10:55:36.153Z,23.40
2022-08-17T11:01:06.870Z,23.00
2022-08-17T11:06:22.624Z,22.70
2022-08-17T11:12:25.610Z,22.50
2022-08-17T11:18:04.901Z,22.50
2022-08-17T11:23:33.050Z,22.70
2022-08-17T11:28:47.401Z,23.00
2022-08-17T11:33:58.095Z,23.40
2022-08-17T11:39:05.122Z,24.00
2022-08-17T11:44:31.019Z,24.80
2022-08-17T11:49:52.937Z,25.60
2022-08-17T11:55:00.254Z,26.30
2022-08-17T12:00:48.551Z,26.30
2022-08-17T12:06:22.589Z,26.30
2022-08-17T12:12:11.139Z,26.60
2022-08-17T12:17:06.414Z,27.10
2022-08-17T12:22:16.598Z,27.50
2022-08-17T12:27:46.112Z,27.60
2022-08-17T12:32:48.951Z,27.10
2022-08-17T12:37:52.557Z,26.60
2022-08-17T12:42:58.793Z,26.20
2022-08-17T12:48:01.902Z,26.20
2022-08-17T12:53:11.521Z,26.30
2022-08-17T12:58:20.377Z,26.30
2022-08-17T13:03:24.703Z,26.80
2022-08-17T13:08:31.585Z,27.10
2022-08-17T13:13:35.418Z,27.50
2022-08-17T13:18:41.593Z,27.60
2022-08-17T13:23:54.694Z,27.50
2022-08-17T13:28:57.123Z,27.30
2022-08-17T13:34:14.297Z,27.30
2022-08-17T13:39:20.916Z,27.30
2022-08-17T13:44:34.852Z,27.60
2022-08-17T13:49:41.553Z,27.80
2022-08-17T13:54:52.335Z,28.30
2022-08-17T14:00:08.487Z,29.10
2022-08-17T14:05:10.388Z,29.30
2022-08-17T14:10:16.381Z,29.20
2022-08-17T14:15:21.289Z,29.30
2022-08-17T14:20:23.296Z,29.60
2022-08-17T14:26:04.255Z,29.70
2022-08-17T14:31:08.640Z,29.60
2022-08-17T14:36:10.540Z,29.50
2022-08-17T14:41:12.395Z,29.40
2022-08-17T14:46:16.120Z,29.50
2022-08-17T14:51:18.010Z,29.20
2022-08-17T14:56:20.048Z,29.10
2022-08-17T15:01:24.997Z,29.20
2022-08-17T15:06:29.323Z,29.20
2022-08-17T15:11:31.211Z,29.10
2022-08-17T15:16:34.977Z,29.00
2022-08-17T15:21:36.824Z,29.10
2022-08-17T15:26:38.957Z,29.00
2022-08-17T15:31:42.297Z,29.10
2022-08-17T15:36:49.369Z,29.20
2022-08-17T15:41:58.354Z,29.40
2022-08-17T15:47:02.105Z,29.30
2022-08-17T15:52:15.985Z,29.20
2022-08-17T15:57:17.958Z,29.30
2022-08-17T16:03:44.865Z,29.40
2022-08-17T16:07:45.796Z,29.10
2022-08-17T16:12:49.011Z,29.10
2022-08-17T16:17:52.515Z,29.10
2022-08-17T16:22:55.109Z,29.00
2022-08-17T16:27:57.376Z,28.70
2022-08-17T16:33:01.763Z,28.70
2022-08-17T16:38:03.563Z,28.60
2022-08-17T16:43:05.811Z,28.40
2022-08-17T16:53:59.139Z,28.20
2022-08-17T16:59:14.306Z,27.90
2022-08-17T17:04:23.721Z,27.80
2022-08-17T17:09:31.373Z,27.60
2022-08-17T17:14:36.832Z,27.50
2022-08-17T17:19:45.524Z,27.40
2022-08-17T17:25:00.338Z,27.30
2022-08-17T17:30:08.812Z,27.20
2022-08-17T17:35:15.438Z,27.10
2022-08-17T17:40:23.229Z,27.00
2022-08-17T17:45:29.128Z,26.90
2022-08-17T17:50:37.205Z,26.80
2022-08-17T17:55:50.074Z,26.60
2022-08-17T18:01:03.540Z,26.40
2022-08-17T18:06:17.121Z,26.40
2022-08-17T18:11:45.883Z,26.30
2022-08-17T18:16:56.164Z,26.10
2022-08-17T18:22:06.652Z,26.00
2022-08-17T18:27:22.460Z,25.80
2022-08-17T18:32:33.897Z,25.60
2022-08-17T18:37:41.068Z,25.30
2022-08-17T18:42:55.236Z,25.10
2022-08-17T18:47:57.982Z,24.90
2022-08-17T18:53:20.024Z,24.80
2022-08-17T18:58:29.769Z,24.40
2022-08-17T19:03:31.659Z,24.10
2022-08-17T19:08:35.674Z,23.80
2022-08-17T19:13:43.481Z,23.60
2022-08-17T19:18:48.711Z,23.30
2022-08-17T19:23:57.291Z,22.90
2022-08-17T19:29:06.654Z,22.30
2022-08-17T19:34:09.563Z,22.00
2022-08-17T19:39:20.991Z,21.80
2022-08-17T19:44:44.054Z,21.60
2022-08-17T19:49:56.453Z,21.50
2022-08-17T19:55:04.612Z,21.30
2022-08-17T20:00:10.212Z,21.20
2022-08-17T20:05:15.704Z,21.10
2022-08-17T20:10:28.853Z,21.00
2022-08-17T20:15:35.679Z,20.90
2022-08-17T20:20:47.009Z,20.80
2022-08-17T20:25:58.427Z,20.70
2022-08-17T20:31:02.268Z,20.30
2022-08-17T20:36:21.323Z,20.00
2022-08-17T20:41:24.940Z,19.80
2022-08-17T20:46:50.031Z,19.60
2022-08-17T20:52:01.648Z,19.40
2022-08-17T20:57:09.197Z,19.30
2022-08-17T21:02:22.840Z,19.30
2022-08-17T21:07:27.804Z,19.30
2022-08-17T21:12:41.014Z,19.10
2022-08-17T21:17:49.969Z,18.80
2022-08-17T21:23:04.595Z,18.50
2022-08-17T21:28:17.225Z,18.30
2022-08-17T21:33:29.292Z,18.30
2022-08-17T21:38:36.745Z,18.20
2022-08-17T21:43:48.256Z,18.10
2022-08-17T21:48:54.698Z,18.20
2022-08-17T21:53:58.957Z,18.30
2022-08-17T21:59:04.167Z,18.20
2022-08-17T22:04:19.417Z,18.10
2022-08-17T22:09:23.118Z,18.00
2022-08-17T22:14:27.632Z,18.10
2022-08-17T22:19:53.633Z,17.90
2022-08-17T22:24:58.828Z,17.80
2022-08-17T22:30:00.505Z,17.90
2022-08-17T22:35:44.411Z,18.00
2022-08-17T22:40:50.763Z,17.90
2022-08-17T22:45:56.506Z,17.80
2022-08-17T22:51:12.295Z,17.80
2022-08-17T22:56:18.653Z,17.80
2022-08-17T23:01:26.644Z,17.80
2022-08-17T23:06:29.064Z,17.80
2022-08-17T23:11:42.894Z,17.80
2022-08-17T23:16:51.988Z,17.80
2022-08-17T23:21:55.429Z,17.80
2022-08-17T23:26:58.876Z,17.70
2022-08-17T23:32:01.489Z,17.70
2022-08-17T23:37:03.982Z,17.70
2022-08-17T23:42:09.303Z,17.60
2022-08-17T23:47:11.341Z,17.60
2022-08-17T23:57:36.089Z,17.20
